createdAt,value
2022-11-25T00:03:23.134Z,18.03
2022-11-25T00:08:26.180Z,17.67
2022-11-25T00:13:29.005Z,17.60
2022-11-25T00:18:33.489Z,17.53
2022-11-25T00:23:36.807Z,16.83
2022-11-25T00:28:41.728Z,14.97
2022-11-25T00:33:46.526Z,14.33
2022-11-25T00:38:54.219Z,13.27
2022-11-25T00:44:14.385Z,12.77
2022-11-25T00:49:18.467Z,13.93
2022-11-25T00:54:21.284Z,13.87
2022-11-25T00:59:24.084Z,12.90
2022-11-25T01:04:28.160Z,14.33
2022-11-25T01:09:31.660Z,13.20
2022-11-25T01:14:35.261Z,10.37
2022-11-25T01:19:42.843Z,10.03
2022-11-25T01:24:48.614Z,11.20
2022-11-25T01:29:51.411Z,10.50
2022-11-25T01:34:55.501Z,10.63
2022-11-25T01:39:58.252Z,10.50
2022-11-25T01:45:36.287Z,10.10
2022-11-25T01:50:42.584Z,11.50
2022-11-25T01:55:50.682Z,11.90
2022-11-25T02:00:53.933Z,10.83
2022-11-25T02:06:05.689Z,12.67
2022-11-25T02:11:08.549Z,12.60
2022-11-25T02:16:11.655Z,12.10
2022-11-25T02:21:21.646Z,11.67
2022-11-25T02:26:26.094Z,12.40
2022-11-25T02:31:29.074Z,11.63
2022-11-25T02:36:31.934Z,11.40
2022-11-25T02:41:38.485Z,12.47
2022-11-25T02:46:41.279Z,11.87
2022-11-25T02:51:45.956Z,11.70
2022-11-25T02:56:50.054Z,11.10
2022-11-25T03:01:52.837Z,11.73
2022-11-25T03:06:55.629Z,11.87
2022-11-25T03:12:17.347Z,12.23
2022-11-25T03:17:20.095Z,11.17
2022-11-25T03:22:23.942Z,11.60
2022-11-25T03:27:30.397Z,11.10
2022-11-25T03:32:33.584Z,10.17
2022-11-25T03:37:36.418Z,11.03
2022-11-25T03:42:40.769Z,10.87
2022-11-25T03:47:44.966Z,10.37
2022-11-25T03:52:47.713Z,10.27
2022-11-25T03:57:51.825Z,9.93
2022-11-25T04:02:54.696Z,10.70
2022-11-25T04:07:58.187Z,9.57
2022-11-25T04:13:02.471Z,9.23
2022-11-25T04:18:05.223Z,10.10
2022-11-25T04:23:08.401Z,9.20
2022-11-25T04:28:12.661Z,9.53
2022-11-25T04:33:15.383Z,9.37
2022-11-25T04:38:18.136Z,10.00
2022-11-25T04:43:22.374Z,9.83
2022-11-25T04:48:25.174Z,16.77
2022-11-25T04:53:27.940Z,13.00
2022-11-25T04:58:49.645Z,9.70
2022-11-25T05:03:57.345Z,9.00
2022-11-25T05:09:00.478Z,9.27
2022-11-25T05:14:04.719Z,8.73
2022-11-25T05:19:07.444Z,14.70
2022-11-25T05:24:10.346Z,15.03
2022-11-25T05:29:14.544Z,11.30
2022-11-25T05:34:17.255Z,10.37
2022-11-25T05:39:20.319Z,9.83
2022-11-25T05:44:24.616Z,9.53
2022-11-25T05:49:27.444Z,9.20
2022-11-25T05:54:30.249Z,9.17
2022-11-25T05:59:34.330Z,10.53
2022-11-25T06:04:37.469Z,9.90
2022-11-25T06:09:40.494Z,10.03
2022-11-25T06:14:44.560Z,9.90
2022-11-25T06:19:48.090Z,10.77
2022-11-25T06:25:00.307Z,11.30
2022-11-25T06:30:05.109Z,10.90
2022-11-25T06:35:08.394Z,16.57
2022-11-25T06:40:11.868Z,17.03
2022-11-25T06:45:16.155Z,22.83
2022-11-25T06:50:19.049Z,22.50
2022-11-25T06:55:21.811Z,14.63
2022-11-25T07:00:26.148Z,12.60
2022-11-25T07:05:28.925Z,11.60
2022-11-25T07:10:31.686Z,12.70
2022-11-25T07:15:37.004Z,11.47
2022-11-25T07:20:40.057Z,10.53
2022-11-25T07:25:42.802Z,10.03
2022-11-25T07:36:12.690Z,8.40
2022-11-25T07:41:18.408Z,7.63
2022-11-25T07:46:27.026Z,8.23
2022-11-25T07:51:32.110Z,8.53
2022-11-25T07:56:36.369Z,8.33
2022-11-25T08:01:40.977Z,8.30
2022-11-25T08:06:45.584Z,8.77
2022-11-25T08:11:48.997Z,9.13
2022-11-25T08:16:53.173Z,9.53
2022-11-25T08:21:56.033Z,9.40
2022-11-25T08:27:01.248Z,8.47
2022-11-25T08:32:11.580Z,8.80
2022-11-25T08:37:14.884Z,8.82
2022-11-25T08:42:17.686Z,8.43
2022-11-25T08:47:21.945Z,9.10
2022-11-25T08:52:25.244Z,9.37
2022-11-25T08:57:28.016Z,7.93
2022-11-25T09:02:32.516Z,9.13
2022-11-25T09:07:35.415Z,8.57
2022-11-25T09:12:38.273Z,8.50
2022-11-25T09:17:42.358Z,9.00
2022-11-25T09:22:45.153Z,8.13
2022-11-25T09:27:47.966Z,7.55
2022-11-25T09:32:53.639Z,8.05
2022-11-25T09:37:56.393Z,8.05
2022-11-25T09:43:31.426Z,7.93
2022-11-25T09:48:50.911Z,7.20
2022-11-25T09:53:55.772Z,7.38
2022-11-25T09:59:14.753Z,7.07
2022-11-25T10:04:27.217Z,6.65
2022-11-25T10:09:41.155Z,6.72
2022-11-25T10:14:49.007Z,6.32
2022-11-25T10:20:09.979Z,6.38
2022-11-25T10:25:19.856Z,6.22
2022-11-25T10:30:28.376Z,6.40
2022-11-25T10:35:37.455Z,6.07
2022-11-25T10:40:40.919Z,5.70
2022-11-25T10:45:49.690Z,5.88
2022-11-25T10:51:10.699Z,4.80
2022-11-25T10:56:19.292Z,5.07
2022-11-25T11:01:23.599Z,4.72
2022-11-25T11:06:33.133Z,4.90
2022-11-25T11:11:49.296Z,5.43
2022-11-25T11:16:54.842Z,5.03
2022-11-25T11:22:16.854Z,5.53
2022-11-25T11:27:23.344Z,5.32
2022-11-25T11:32:29.361Z,5.63
2022-11-25T11:37:43.697Z,5.70
2022-11-25T11:43:02.213Z,5.15
2022-11-25T11:48:14.067Z,4.85
2022-11-25T11:53:28.955Z,4.90
2022-11-25T11:58:48.495Z,4.72
2022-11-25T12:03:59.388Z,4.90
2022-11-25T12:09:09.405Z,5.15
2022-11-25T12:14:23.414Z,5.18
2022-11-25T12:19:34.295Z,6.00
2022-11-25T12:24:43.513Z,6.68
2022-11-25T12:29:50.586Z,5.43
2022-11-25T12:34:59.786Z,5.37
2022-11-25T12:40:12.973Z,5.80
2022-11-25T12:45:21.494Z,6.13
2022-11-25T12:50:31.047Z,5.77
2022-11-25T12:55:35.946Z,5.88
2022-11-25T13:00:56.664Z,5.53
2022-11-25T13:06:19.838Z,5.80
2022-11-25T13:11:50.205Z,5.63
2022-11-25T13:16:55.982Z,5.10
2022-11-25T13:22:00.853Z,5.07
2022-11-25T13:27:05.411Z,5.10
2022-11-25T13:32:27.813Z,5.13
2022-11-25T13:37:39.952Z,6.03
2022-11-25T13:42:46.442Z,5.90
2022-11-25T13:47:50.142Z,6.20
2022-11-25T13:53:01.196Z,6.33
2022-11-25T13:58:15.840Z,6.90
2022-11-25T14:03:52.122Z,7.13
2022-11-25T14:09:02.065Z,7.00
2022-11-25T14:14:29.558Z,8.03
2022-11-25T14:19:56.395Z,8.00
2022-11-25T14:25:17.379Z,8.13
2022-11-25T14:30:21.824Z,7.97
2022-11-25T14:35:31.406Z,9.13
2022-11-25T14:40:39.431Z,8.80
2022-11-25T14:45:43.696Z,9.53
2022-11-25T14:51:07.109Z,9.73
2022-11-25T14:56:10.280Z,10.07
2022-11-25T15:01:20.965Z,10.00
2022-11-25T15:06:36.047Z,10.30
2022-11-25T15:11:38.865Z,10.43
2022-11-25T15:16:43.344Z,10.70
2022-11-25T15:22:21.408Z,11.23
2022-11-25T15:27:19.403Z,11.60
2022-11-25T15:32:26.365Z,11.63
2022-11-25T15:42:43.231Z,11.23
2022-11-25T15:47:47.366Z,11.97
2022-11-25T15:52:54.443Z,11.80
2022-11-25T15:58:04.044Z,12.73
2022-11-25T16:03:20.631Z,12.07
2022-11-25T16:08:36.224Z,12.37
2022-11-25T16:13:40.965Z,12.37
2022-11-25T16:18:52.143Z,12.60
2022-11-25T16:24:00.783Z,12.00
2022-11-25T16:29:16.689Z,12.63
2022-11-25T16:34:21.242Z,12.70
2022-11-25T16:39:24.010Z,13.43
2022-11-25T16:44:29.017Z,14.33
2022-11-25T16:49:32.893Z,13.90
2022-11-25T16:54:37.649Z,14.00
2022-11-25T16:59:44.402Z,16.17
2022-11-25T17:04:48.112Z,15.97
2022-11-25T17:09:51.030Z,14.77
2022-11-25T17:14:55.221Z,13.80
2022-11-25T17:19:58.074Z,14.53
2022-11-25T17:25:00.825Z,15.30
2022-11-25T17:30:08.433Z,15.03
2022-11-25T17:35:18.487Z,14.93
2022-11-25T17:40:21.265Z,15.23
2022-11-25T17:45:25.389Z,15.13
2022-11-25T17:50:28.239Z,14.97
2022-11-25T17:55:32.053Z,16.33
2022-11-25T18:00:37.194Z,15.43
2022-11-25T18:05:40.140Z,15.73
2022-11-25T18:10:45.484Z,15.63
2022-11-25T18:15:49.830Z,15.87
2022-11-25T18:20:53.296Z,15.33
2022-11-25T18:25:58.074Z,14.90
2022-11-25T18:31:07.106Z,16.07
2022-11-25T18:36:13.690Z,16.37
2022-11-25T18:41:21.555Z,16.00
2022-11-25T18:46:25.717Z,15.47
2022-11-25T18:51:28.581Z,16.50
2022-11-25T18:56:31.505Z,15.33
2022-11-25T19:06:53.036Z,16.03
2022-11-25T19:12:03.455Z,16.20
2022-11-25T19:17:19.442Z,18.03
2022-11-25T20:47:30.511Z,19.47
2022-11-25T21:12:42.803Z,18.00
2022-11-25T21:42:20.514Z,19.73
2022-11-25T22:04:14.703Z,17.83
2022-11-25T22:09:18.101Z,17.10
2022-11-25T22:20:53.753Z,17.43
2022-11-25T22:33:24.187Z,17.20
2022-11-25T22:39:00.569Z,18.27
2022-11-25T22:56:54.165Z,17.83
2022-11-25T23:02:27.436Z,18.77
2022-11-25T23:07:38.432Z,16.70
2022-11-25T23:13:03.971Z,17.37
2022-11-25T23:24:48.834Z,18.00
2022-11-25T23:37:24.640Z,17.57
2022-11-25T23:43:48.951Z,16.70
2022-11-25T23:56:12.269Z,11.77
